sensor_id;sensor_type;location;lat;lon;timestamp;pressure;altitude;pressure_sealevel;temperature;humidity
80837;BME280;70251;60.008;30.404;2023-08-06T00:02:06;101065.06;;;23.87;59.27
80837;BME280;70251;60.008;30.404;2023-08-06T00:04:31;101071.13;;;23.89;59.34
80837;BME280;70251;60.008;30.404;2023-08-06T00:09:22;101059.00;;;23.85;59.36
80837;BME280;70251;60.008;30.404;2023-08-06T00:11:48;101066.53;;;23.83;59.34
80837;BME280;70251;60.008;30.404;2023-08-06T00:14:13;101065.50;;;23.84;59.47
80837;BME280;70251;60.008;30.404;2023-08-06T00:16:43;101068.22;;;23.84;59.57
80837;BME280;70251;60.008;30.404;2023-08-06T00:19:09;101080.16;;;23.83;59.64
80837;BME280;70251;60.008;30.404;2023-08-06T00:21:34;101078.50;;;23.82;59.51
80837;BME280;70251;60.008;30.404;2023-08-06T00:24:00;101076.19;;;23.79;59.72
80837;BME280;70251;60.008;30.404;2023-08-06T00:26:25;101077.88;;;23.80;59.78
80837;BME280;70251;60.008;30.404;2023-08-06T00:28:51;101082.28;;;23.81;59.57
80837;BME280;70251;60.008;30.404;2023-08-06T00:31:17;101079.75;;;23.80;59.67
80837;BME280;70251;60.008;30.404;2023-08-06T00:33:42;101080.59;;;23.80;59.89
80837;BME280;70251;60.008;30.404;2023-08-06T00:36:08;101079.75;;;23.80;60.02
80837;BME280;70251;60.008;30.404;2023-08-06T00:38:33;101085.84;;;23.82;59.94
80837;BME280;70251;60.008;30.404;2023-08-06T00:40:59;101074.31;;;23.80;60.10
80837;BME280;70251;60.008;30.404;2023-08-06T00:43:24;101077.88;;;23.80;60.11
80837;BME280;70251;60.008;30.404;2023-08-06T00:45:50;101083.34;;;23.80;60.13
80837;BME280;70251;60.008;30.404;2023-08-06T00:48:16;101079.13;;;23.78;60.37
80837;BME280;70251;60.008;30.404;2023-08-06T00:50:42;101075.56;;;23.77;60.48
80837;BME280;70251;60.008;30.404;2023-08-06T00:53:08;101072.00;;;23.77;60.56
80837;BME280;70251;60.008;30.404;2023-08-06T00:55:34;101059.44;;;23.76;60.88
80837;BME280;70251;60.008;30.404;2023-08-06T00:58:00;101070.34;;;23.76;60.80
80837;BME280;70251;60.008;30.404;2023-08-06T01:00:26;101067.84;;;23.74;61.04
80837;BME280;70251;60.008;30.404;2023-08-06T01:02:53;101071.19;;;23.76;61.05
80837;BME280;70251;60.008;30.404;2023-08-06T01:05:20;101066.78;;;23.75;60.94
80837;BME280;70251;60.008;30.404;2023-08-06T01:08:11;101076.19;;;23.79;61.22
80837;BME280;70251;60.008;30.404;2023-08-06T01:16:06;101054.63;;;23.71;61.22
80837;BME280;70251;60.008;30.404;2023-08-06T01:18:32;101054.84;;;23.70;61.14
80837;BME280;70251;60.008;30.404;2023-08-06T01:20:58;101044.13;;;23.68;61.10
80837;BME280;70251;60.008;30.404;2023-08-06T01:23:24;101047.06;;;23.67;61.43
80837;BME280;70251;60.008;30.404;2023-08-06T01:26:30;101045.59;;;23.71;61.58
80837;BME280;70251;60.008;30.404;2023-08-06T01:29:12;101040.78;;;23.66;61.18
80837;BME280;70251;60.008;30.404;2023-08-06T01:31:42;101042.25;;;23.62;61.18
80837;BME280;70251;60.008;30.404;2023-08-06T01:34:23;101036.41;;;23.65;61.29
80837;BME280;70251;60.008;30.404;2023-08-06T01:36:50;101046.84;;;23.62;61.11
80837;BME280;70251;60.008;30.404;2023-08-06T01:39:16;101042.69;;;23.59;61.05
80837;BME280;70251;60.008;30.404;2023-08-06T01:41:41;101045.41;;;23.59;61.10
80837;BME280;70251;60.008;30.404;2023-08-06T01:44:07;101042.88;;;23.58;61.14
80837;BME280;70251;60.008;30.404;2023-08-06T01:46:32;101036.81;;;23.56;61.00
80837;BME280;70251;60.008;30.404;2023-08-06T01:48:58;101040.78;;;23.53;61.18
80837;BME280;70251;60.008;30.404;2023-08-06T01:51:24;101042.69;;;23.53;60.84
80837;BME280;70251;60.008;30.404;2023-08-06T01:53:49;101035.16;;;23.48;61.07
80837;BME280;70251;60.008;30.404;2023-08-06T01:56:15;101036.19;;;23.47;60.83
80837;BME280;70251;60.008;30.404;2023-08-06T01:58:40;101032.84;;;23.45;60.70
80837;BME280;70251;60.008;30.404;2023-08-06T02:01:06;101029.72;;;23.42;61.28
80837;BME280;70251;60.008;30.404;2023-08-06T02:03:31;101018.41;;;23.38;61.30
80837;BME280;70251;60.008;30.404;2023-08-06T02:05:57;101020.69;;;23.35;61.48
80837;BME280;70251;60.008;30.404;2023-08-06T02:08:23;101020.47;;;23.30;61.47
80837;BME280;70251;60.008;30.404;2023-08-06T02:10:48;101020.66;;;23.28;61.68
80837;BME280;70251;60.008;30.404;2023-08-06T02:13:14;101012.94;;;23.25;61.60
80837;BME280;70251;60.008;30.404;2023-08-06T02:15:43;101012.09;;;23.25;61.54
80837;BME280;70251;60.008;30.404;2023-08-06T02:18:09;101013.78;;;23.19;61.69
80837;BME280;70251;60.008;30.404;2023-08-06T02:20:35;101020.47;;;23.17;61.65
80837;BME280;70251;60.008;30.404;2023-08-06T02:23:00;101020.03;;;23.13;61.61
80837;BME280;70251;60.008;30.404;2023-08-06T02:25:26;101015.03;;;23.10;61.53
80837;BME280;70251;60.008;30.404;2023-08-06T02:27:51;101013.97;;;23.11;61.60
80837;BME280;70251;60.008;30.404;2023-08-06T02:30:17;101018.38;;;23.12;61.70
80837;BME280;70251;60.008;30.404;2023-08-06T02:32:42;101018.59;;;23.10;61.72
80837;BME280;70251;60.008;30.404;2023-08-06T02:35:08;101023.19;;;23.10;61.90
80837;BME280;70251;60.008;30.404;2023-08-06T02:37:34;101015.03;;;23.10;61.48
80837;BME280;70251;60.008;30.404;2023-08-06T02:40:00;101026.31;;;23.07;61.54
80837;BME280;70251;60.008;30.404;2023-08-06T02:42:25;101017.28;;;23.00;61.98
80837;BME280;70251;60.008;30.404;2023-08-06T02:44:52;101025.66;;;22.92;62.11
80837;BME280;70251;60.008;30.404;2023-08-06T02:47:20;101026.09;;;22.89;62.12
80837;BME280;70251;60.008;30.404;2023-08-06T02:49:46;101025.03;;;22.90;62.44
80837;BME280;70251;60.008;30.404;2023-08-06T02:52:11;101024.19;;;22.89;62.35
80837;BME280;70251;60.008;30.404;2023-08-06T02:54:37;101026.72;;;22.91;62.37
80837;BME280;70251;60.008;30.404;2023-08-06T02:57:02;101022.94;;;22.92;61.96
80837;BME280;70251;60.008;30.404;2023-08-06T02:59:28;101028.84;;;22.95;62.01
80837;BME280;70251;60.008;30.404;2023-08-06T03:01:53;101033.00;;;22.98;62.33
80837;BME280;70251;60.008;30.404;2023-08-06T03:04:19;101025.88;;;22.97;61.86
80837;BME280;70251;60.008;30.404;2023-08-06T03:06:44;101024.19;;;22.96;62.04
80837;BME280;70251;60.008;30.404;2023-08-06T03:09:10;101035.09;;;22.96;62.19
80837;BME280;70251;60.008;30.404;2023-08-06T03:11:35;101039.91;;;22.94;61.98
80837;BME280;70251;60.008;30.404;2023-08-06T03:14:01;101043.88;;;22.91;62.06
80837;BME280;70251;60.008;30.404;2023-08-06T03:16:27;101039.88;;;22.87;62.38
80837;BME280;70251;60.008;30.404;2023-08-06T03:18:52;101034.88;;;22.84;62.33
80837;BME280;70251;60.008;30.404;2023-08-06T03:21:18;101035.72;;;22.85;62.16
80837;BME280;70251;60.008;30.404;2023-08-06T03:23:47;101041.16;;;22.85;62.59
80837;BME280;70251;60.008;30.404;2023-08-06T03:26:12;101043.25;;;22.83;62.61
80837;BME280;70251;60.008;30.404;2023-08-06T03:28:38;101049.75;;;22.88;62.71
80837;BME280;70251;60.008;30.404;2023-08-06T03:31:04;101040.34;;;22.91;62.75
80837;BME280;70251;60.008;30.404;2023-08-06T03:33:29;101031.75;;;22.94;62.42
80837;BME280;70251;60.008;30.404;2023-08-06T03:35:55;101031.97;;;22.99;62.70
80837;BME280;70251;60.008;30.404;2023-08-06T03:38:21;101036.16;;;23.01;62.61
80837;BME280;70251;60.008;30.404;2023-08-06T03:40:48;101040.34;;;23.04;62.31
80837;BME280;70251;60.008;30.404;2023-08-06T03:43:14;101024.44;;;23.01;62.63
80837;BME280;70251;60.008;30.404;2023-08-06T03:45:40;101030.09;;;23.06;62.58
80837;BME280;70251;60.008;30.404;2023-08-06T03:48:06;101026.53;;;23.05;62.58
80837;BME280;70251;60.008;30.404;2023-08-06T03:50:32;101023.59;;;23.07;62.56
80837;BME280;70251;60.008;30.404;2023-08-06T03:52:57;101026.94;;;23.09;62.56
80837;BME280;70251;60.008;30.404;2023-08-06T03:55:23;101023.81;;;23.12;61.99
80837;BME280;70251;60.008;30.404;2023-08-06T03:57:48;101026.53;;;23.12;62.29
80837;BME280;70251;60.008;30.404;2023-08-06T04:00:14;101032.00;;;23.19;62.17
80837;BME280;70251;60.008;30.404;2023-08-06T04:02:39;101034.50;;;23.20;62.12
80837;BME280;70251;60.008;30.404;2023-08-06T04:05:05;101030.09;;;23.19;62.28
80837;BME280;70251;60.008;30.404;2023-08-06T04:07:31;101034.09;;;23.17;62.28
80837;BME280;70251;60.008;30.404;2023-08-06T04:10:04;101030.09;;;23.19;62.78
80837;BME280;70251;60.008;30.404;2023-08-06T04:12:32;101022.34;;;23.16;62.64
80837;BME280;70251;60.008;30.404;2023-08-06T04:15:02;101017.94;;;23.15;62.46
80837;BME280;70251;60.008;30.404;2023-08-06T04:17:32;101011.69;;;23.14;62.46
80837;BME280;70251;60.008;30.404;2023-08-06T04:19:57;101000.78;;;23.14;62.74
80837;BME280;70251;60.008;30.404;2023-08-06T04:22:25;100992.41;;;23.16;62.66
80837;BME280;70251;60.008;30.404;2023-08-06T04:24:50;100989.47;;;23.17;62.99
80837;BME280;70251;60.008;30.404;2023-08-06T04:27:17;100996.16;;;23.22;62.63
80837;BME280;70251;60.008;30.404;2023-08-06T04:29:43;100987.59;;;23.18;62.40
80837;BME280;70251;60.008;30.404;2023-08-06T04:32:09;100991.56;;;23.09;62.73
80837;BME280;70251;60.008;30.404;2023-08-06T04:34:36;100985.69;;;23.05;62.73
80837;BME280;70251;60.008;30.404;2023-08-06T04:37:03;100978.16;;;23.01;62.67
80837;BME280;70251;60.008;30.404;2023-08-06T04:39:29;100985.28;;;22.95;63.03
80837;BME280;70251;60.008;30.404;2023-08-06T04:41:55;100988.19;;;22.94;63.03
80837;BME280;70251;60.008;30.404;2023-08-06T04:44:23;100980.25;;;22.92;62.72
80837;BME280;70251;60.008;30.404;2023-08-06T04:46:49;100982.56;;;22.89;62.95
80837;BME280;70251;60.008;30.404;2023-08-06T04:49:14;100975.19;;;22.89;63.06
80837;BME280;70251;60.008;30.404;2023-08-06T04:51:40;100966.41;;;22.87;62.86
80837;BME280;70251;60.008;30.404;2023-08-06T04:54:05;100969.56;;;22.84;62.94
80837;BME280;70251;60.008;30.404;2023-08-06T04:56:31;100966.84;;;22.84;62.68
80837;BME280;70251;60.008;30.404;2023-08-06T04:58:58;100971.84;;;22.81;63.11
80837;BME280;70251;60.008;30.404;2023-08-06T05:01:24;100970.19;;;22.80;62.71
80837;BME280;70251;60.008;30.404;2023-08-06T05:03:50;100973.53;;;22.82;62.65
80837;BME280;70251;60.008;30.404;2023-08-06T05:06:15;100962.44;;;22.77;62.59
80837;BME280;70251;60.008;30.404;2023-08-06T05:08:41;100960.97;;;22.81;62.53
80837;BME280;70251;60.008;30.404;2023-08-06T05:11:06;100959.94;;;22.82;62.09
80837;BME280;70251;60.008;30.404;2023-08-06T05:13:32;100960.34;;;22.85;62.21
80837;BME280;70251;60.008;30.404;2023-08-06T05:15:58;100967.88;;;22.83;62.08
80837;BME280;70251;60.008;30.404;2023-08-06T05:18:23;100968.94;;;22.82;62.16
80837;BME280;70251;60.008;30.404;2023-08-06T05:20:49;100976.03;;;22.83;61.98
80837;BME280;70251;60.008;30.404;2023-08-06T05:23:15;100964.75;;;22.86;61.92
80837;BME280;70251;60.008;30.404;2023-08-06T05:25:40;100970.19;;;22.93;62.05
80837;BME280;70251;60.008;30.404;2023-08-06T05:28:06;100960.56;;;22.97;61.59
80837;BME280;70251;60.008;30.404;2023-08-06T05:30:31;100953.25;;;23.04;61.55
80837;BME280;70251;60.008;30.404;2023-08-06T05:32:57;100955.53;;;23.07;61.54
80837;BME280;70251;60.008;30.404;2023-08-06T05:35:23;100948.84;;;23.09;61.45
80837;BME280;70251;60.008;30.404;2023-08-06T05:37:50;100942.31;;;23.17;61.56
80837;BME280;70251;60.008;30.404;2023-08-06T05:40:15;100937.31;;;23.21;61.32
80837;BME280;70251;60.008;30.404;2023-08-06T05:42:41;100921.59;;;23.29;61.43
80837;BME280;70251;60.008;30.404;2023-08-06T05:45:07;100913.22;;;23.37;61.28
80837;BME280;70251;60.008;30.404;2023-08-06T05:47:33;100916.97;;;23.43;61.17
80837;BME280;70251;60.008;30.404;2023-08-06T05:49:58;100919.91;;;23.48;60.72
80837;BME280;70251;60.008;30.404;2023-08-06T05:52:24;100916.31;;;23.54;60.79
80837;BME280;70251;60.008;30.404;2023-08-06T05:54:49;100924.25;;;23.62;60.65
80837;BME280;70251;60.008;30.404;2023-08-06T05:57:16;100919.44;;;23.64;60.62
80837;BME280;70251;60.008;30.404;2023-08-06T05:59:42;100919.84;;;23.67;60.73
80837;BME280;70251;60.008;30.404;2023-08-06T06:02:08;100912.94;;;23.65;60.47
80837;BME280;70251;60.008;30.404;2023-08-06T06:04:33;100905.16;;;23.68;60.30
80837;BME280;70251;60.008;30.404;2023-08-06T06:06:59;100912.22;;;23.89;60.28
80837;BME280;70251;60.008;30.404;2023-08-06T06:09:25;100916.16;;;24.00;60.12
80837;BME280;70251;60.008;30.404;2023-08-06T06:11:50;100918.88;;;24.06;59.72
80837;BME280;70251;60.008;30.404;2023-08-06T06:14:17;100908.56;;;24.15;59.57
80837;BME280;70251;60.008;30.404;2023-08-06T06:16:43;100921.72;;;24.24;59.40
80837;BME280;70251;60.008;30.404;2023-08-06T06:19:08;100920.41;;;24.33;59.14
80837;BME280;70251;60.008;30.404;2023-08-06T06:21:34;100926.66;;;24.40;59.18
80837;BME280;70251;60.008;30.404;2023-08-06T06:23:59;100916.13;;;24.44;58.82
80837;BME280;70251;60.008;30.404;2023-08-06T06:26:25;100920.09;;;24.48;59.00
80837;BME280;70251;60.008;30.404;2023-08-06T06:28:50;100912.75;;;24.48;58.65
80837;BME280;70251;60.008;30.404;2023-08-06T06:31:16;100925.28;;;24.56;58.53
80837;BME280;70251;60.008;30.404;2023-08-06T06:33:41;100914.97;;;24.58;58.35
80837;BME280;70251;60.008;30.404;2023-08-06T06:36:07;100912.25;;;24.58;58.13
80837;BME280;70251;60.008;30.404;2023-08-06T06:38:34;100908.06;;;24.55;58.61
80837;BME280;70251;60.008;30.404;2023-08-06T06:40:59;100903.25;;;24.57;58.42
80837;BME280;70251;60.008;30.404;2023-08-06T06:43:25;100905.47;;;24.67;58.49
80837;BME280;70251;60.008;30.404;2023-08-06T06:45:58;100908.16;;;24.74;58.57
80837;BME280;70251;60.008;30.404;2023-08-06T06:48:29;100903.56;;;24.74;58.50
80837;BME280;70251;60.008;30.404;2023-08-06T06:50:55;100912.56;;;24.75;58.08
80837;BME280;70251;60.008;30.404;2023-08-06T06:53:21;100906.25;;;24.81;58.53
80837;BME280;70251;60.008;30.404;2023-08-06T06:55:55;100903.25;;;24.89;58.51
80837;BME280;70251;60.008;30.404;2023-08-06T06:58:21;100900.28;;;24.90;58.07
80837;BME280;70251;60.008;30.404;2023-08-06T07:00:47;100899.44;;;24.90;58.03
80837;BME280;70251;60.008;30.404;2023-08-06T07:03:16;100896.50;;;24.91;58.66
80837;BME280;70251;60.008;30.404;2023-08-06T07:05:44;100910.75;;;24.93;58.34
80837;BME280;70251;60.008;30.404;2023-08-06T07:08:10;100902.72;;;24.98;58.29
80837;BME280;70251;60.008;30.404;2023-08-06T07:10:37;100899.97;;;24.98;58.14
80837;BME280;70251;60.008;30.404;2023-08-06T07:13:02;100904.56;;;25.04;58.19
80837;BME280;70251;60.008;30.404;2023-08-06T07:15:28;100894.03;;;25.08;58.28
80837;BME280;70251;60.008;30.404;2023-08-06T07:17:54;100896.94;;;25.13;58.19
80837;BME280;70251;60.008;30.404;2023-08-06T07:20:19;100890.31;;;25.20;58.12
80837;BME280;70251;60.008;30.404;2023-08-06T07:22:45;100893.97;;;25.32;57.87
80837;BME280;70251;60.008;30.404;2023-08-06T07:25:10;100887.59;;;25.38;57.64
80837;BME280;70251;60.008;30.404;2023-08-06T07:27:36;100892.94;;;25.52;57.76
80837;BME280;70251;60.008;30.404;2023-08-06T07:30:01;100887.94;;;25.67;57.65
80837;BME280;70251;60.008;30.404;2023-08-06T07:32:30;100891.19;;;25.75;57.61
80837;BME280;70251;60.008;30.404;2023-08-06T07:34:55;100878.53;;;25.81;57.26
80837;BME280;70251;60.008;30.404;2023-08-06T07:37:25;100885.19;;;25.85;57.54
80837;BME280;70251;60.008;30.404;2023-08-06T07:39:50;100891.47;;;25.85;57.41
80837;BME280;70251;60.008;30.404;2023-08-06T07:42:16;100883.91;;;25.87;57.45
80837;BME280;70251;60.008;30.404;2023-08-06T07:44:41;100881.91;;;25.94;57.37
80837;BME280;70251;60.008;30.404;2023-08-06T07:47:07;100882.59;;;26.08;57.20
80837;BME280;70251;60.008;30.404;2023-08-06T07:49:32;100888.50;;;26.23;56.87
80837;BME280;70251;60.008;30.404;2023-08-06T07:51:58;100880.81;;;26.43;57.15
80837;BME280;70251;60.008;30.404;2023-08-06T07:54:23;100883.47;;;26.61;56.36
80837;BME280;70251;60.008;30.404;2023-08-06T07:56:50;100889.06;;;26.66;56.23
80837;BME280;70251;60.008;30.404;2023-08-06T07:59:15;100898.22;;;26.60;55.99
80837;BME280;70251;60.008;30.404;2023-08-06T08:01:41;100885.47;;;26.54;56.24
80837;BME280;70251;60.008;30.404;2023-08-06T08:04:06;100893.34;;;26.51;56.05
80837;BME280;70251;60.008;30.404;2023-08-06T08:06:33;100896.66;;;26.53;56.33
80837;BME280;70251;60.008;30.404;2023-08-06T08:08:58;100891.56;;;26.56;56.09
80837;BME280;70251;60.008;30.404;2023-08-06T08:11:25;100894.88;;;26.58;55.93
80837;BME280;70251;60.008;30.404;2023-08-06T08:13:51;100898.59;;;26.64;55.91
80837;BME280;70251;60.008;30.404;2023-08-06T08:16:17;100899.22;;;26.66;56.04
80837;BME280;70251;60.008;30.404;2023-08-06T08:18:42;100900.16;;;26.71;55.77
80837;BME280;70251;60.008;30.404;2023-08-06T08:21:08;100896.50;;;26.77;55.59
80837;BME280;70251;60.008;30.404;2023-08-06T08:23:33;100890.22;;;26.88;55.73
80837;BME280;70251;60.008;30.404;2023-08-06T08:25:59;100897.59;;;27.00;55.83
80837;BME280;70251;60.008;30.404;2023-08-06T08:28:24;100885.22;;;27.09;55.78
80837;BME280;70251;60.008;30.404;2023-08-06T08:30:50;100891.78;;;27.19;55.54
80837;BME280;70251;60.008;30.404;2023-08-06T08:33:18;100886.19;;;27.26;55.77
80837;BME280;70251;60.008;30.404;2023-08-06T08:35:45;100880.53;;;27.32;55.17
80837;BME280;70251;60.008;30.404;2023-08-06T08:38:11;100883.91;;;27.23;55.25
80837;BME280;70251;60.008;30.404;2023-08-06T08:40:42;100865.94;;;27.15;55.46
80837;BME280;70251;60.008;30.404;2023-08-06T08:43:11;100867.84;;;27.15;55.83
80837;BME280;70251;60.008;30.404;2023-08-06T08:45:39;100869.22;;;27.29;55.23
80837;BME280;70251;60.008;30.404;2023-08-06T08:48:05;100867.78;;;27.49;55.18
80837;BME280;70251;60.008;30.404;2023-08-06T08:50:32;100861.78;;;27.76;55.22
80837;BME280;70251;60.008;30.404;2023-08-06T08:52:58;100855.50;;;28.03;54.72
80837;BME280;70251;60.008;30.404;2023-08-06T08:55:24;100855.78;;;28.18;54.33
80837;BME280;70251;60.008;30.404;2023-08-06T08:57:50;100853.63;;;28.20;54.07
80837;BME280;70251;60.008;30.404;2023-08-06T09:00:16;100856.88;;;28.17;54.07
80837;BME280;70251;60.008;30.404;2023-08-06T09:02:44;100854.13;;;28.17;54.15
80837;BME280;70251;60.008;30.404;2023-08-06T09:05:10;100862.28;;;28.29;54.43
80837;BME280;70251;60.008;30.404;2023-08-06T09:07:41;100863.47;;;28.50;53.44
80837;BME280;70251;60.008;30.404;2023-08-06T09:10:10;100868.19;;;28.66;53.23
80837;BME280;70251;60.008;30.404;2023-08-06T09:12:36;100859.88;;;28.94;53.20
80837;BME280;70251;60.008;30.404;2023-08-06T09:15:02;100850.84;;;29.15;52.92
80837;BME280;70251;60.008;30.404;2023-08-06T09:17:29;100860.53;;;29.39;52.46
80837;BME280;70251;60.008;30.404;2023-08-06T09:19:55;100861.28;;;29.35;51.92
80837;BME280;70251;60.008;30.404;2023-08-06T09:22:21;100859.25;;;29.25;52.10
80837;BME280;70251;60.008;30.404;2023-08-06T09:24:46;100857.06;;;29.27;51.94
80837;BME280;70251;60.008;30.404;2023-08-06T09:27:13;100856.44;;;29.42;51.93
80837;BME280;70251;60.008;30.404;2023-08-06T09:29:40;100853.72;;;29.63;51.81
80837;BME280;70251;60.008;30.404;2023-08-06T09:32:07;100853.53;;;29.92;51.17
80837;BME280;70251;60.008;30.404;2023-08-06T09:34:32;100857.22;;;30.02;51.06
80837;BME280;70251;60.008;30.404;2023-08-06T09:36:58;100854.97;;;29.99;50.88
80837;BME280;70251;60.008;30.404;2023-08-06T09:39:27;100849.88;;;29.86;50.57
80837;BME280;70251;60.008;30.404;2023-08-06T09:41:58;100857.34;;;29.90;50.53
80837;BME280;70251;60.008;30.404;2023-08-06T09:44:25;100864.75;;;30.12;50.95
80837;BME280;70251;60.008;30.404;2023-08-06T09:46:56;100851.88;;;30.44;49.93
80837;BME280;70251;60.008;30.404;2023-08-06T09:49:25;100842.25;;;30.78;49.82
80837;BME280;70251;60.008;30.404;2023-08-06T09:51:52;100837.78;;;31.04;49.42
80837;BME280;70251;60.008;30.404;2023-08-06T09:54:24;100841.44;;;31.14;48.98
80837;BME280;70251;60.008;30.404;2023-08-06T09:56:52;100834.31;;;31.23;48.54
80837;BME280;70251;60.008;30.404;2023-08-06T09:59:18;100827.13;;;31.22;48.87
80837;BME280;70251;60.008;30.404;2023-08-06T10:01:45;100831.56;;;31.28;48.65
80837;BME280;70251;60.008;30.404;2023-08-06T10:04:14;100832.97;;;31.26;48.51
80837;BME280;70251;60.008;30.404;2023-08-06T10:06:42;100820.59;;;31.38;48.34
80837;BME280;70251;60.008;30.404;2023-08-06T10:09:08;100828.97;;;31.54;47.79
80837;BME280;70251;60.008;30.404;2023-08-06T10:11:36;100826.97;;;31.39;47.71
80837;BME280;70251;60.008;30.404;2023-08-06T10:14:10;100820.25;;;31.25;47.65
80837;BME280;70251;60.008;30.404;2023-08-06T10:16:38;100817.22;;;31.26;47.85
80837;BME280;70251;60.008;30.404;2023-08-06T10:19:04;100815.16;;;31.49;47.49
80837;BME280;70251;60.008;30.404;2023-08-06T10:21:32;100821.38;;;31.86;47.22
80837;BME280;70251;60.008;30.404;2023-08-06T10:23:58;100811.78;;;32.19;46.79
80837;BME280;70251;60.008;30.404;2023-08-06T10:26:29;100807.38;;;32.43;45.83
80837;BME280;70251;60.008;30.404;2023-08-06T10:28:55;100802.38;;;32.40;46.36
80837;BME280;70251;60.008;30.404;2023-08-06T10:31:54;100810.16;;;32.53;45.99
80837;BME280;70251;60.008;30.404;2023-08-06T10:34:58;100816.50;;;32.83;46.00
80837;BME280;70251;60.008;30.404;2023-08-06T10:37:37;100813.72;;;32.94;45.38
80837;BME280;70251;60.008;30.404;2023-08-06T10:40:04;100810.69;;;32.90;45.54
80837;BME280;70251;60.008;30.404;2023-08-06T10:42:31;100818.16;;;33.00;45.36
80837;BME280;70251;60.008;30.404;2023-08-06T10:45:26;100816.97;;;33.21;45.26
80837;BME280;70251;60.008;30.404;2023-08-06T10:47:55;100815.91;;;33.17;45.16
80837;BME280;70251;60.008;30.404;2023-08-06T10:50:24;100813.66;;;33.24;44.57
80837;BME280;70251;60.008;30.404;2023-08-06T10:52:50;100804.47;;;33.38;44.21
80837;BME280;70251;60.008;30.404;2023-08-06T10:55:29;100805.25;;;33.59;43.47
80837;BME280;70251;60.008;30.404;2023-08-06T10:57:55;100806.75;;;33.85;43.97
80837;BME280;70251;60.008;30.404;2023-08-06T11:00:22;100809.31;;;34.20;43.46
80837;BME280;70251;60.008;30.404;2023-08-06T11:02:49;100809.16;;;34.41;42.66
80837;BME280;70251;60.008;30.404;2023-08-06T11:05:15;100799.38;;;34.48;42.57
80837;BME280;70251;60.008;30.404;2023-08-06T11:07:41;100805.69;;;34.59;42.39
80837;BME280;70251;60.008;30.404;2023-08-06T11:10:10;100809.59;;;34.58;42.01
80837;BME280;70251;60.008;30.404;2023-08-06T11:12:35;100804.03;;;34.63;42.38
80837;BME280;70251;60.008;30.404;2023-08-06T11:15:02;100801.06;;;34.54;41.91
80837;BME280;70251;60.008;30.404;2023-08-06T11:17:33;100803.38;;;34.37;42.06
80837;BME280;70251;60.008;30.404;2023-08-06T11:20:00;100795.66;;;34.29;42.16
80837;BME280;70251;60.008;30.404;2023-08-06T11:22:26;100802.31;;;34.33;42.20
80837;BME280;70251;60.008;30.404;2023-08-06T11:24:53;100792.78;;;34.44;42.17
80837;BME280;70251;60.008;30.404;2023-08-06T11:27:18;100801.50;;;34.27;42.21
80837;BME280;70251;60.008;30.404;2023-08-06T11:29:44;100798.53;;;34.19;42.53
80837;BME280;70251;60.008;30.404;2023-08-06T11:32:10;100797.66;;;34.23;42.08
80837;BME280;70251;60.008;30.404;2023-08-06T11:34:37;100804.69;;;34.45;42.81
80837;BME280;70251;60.008;30.404;2023-08-06T11:37:03;100795.66;;;34.68;41.94
80837;BME280;70251;60.008;30.404;2023-08-06T11:39:36;100804.03;;;34.86;41.78
80837;BME280;70251;60.008;30.404;2023-08-06T11:42:07;100796.72;;;35.00;41.60
80837;BME280;70251;60.008;30.404;2023-08-06T11:44:36;100791.72;;;34.97;41.64
80837;BME280;70251;60.008;30.404;2023-08-06T11:47:03;100793.13;;;35.00;41.74
80837;BME280;70251;60.008;30.404;2023-08-06T11:49:43;100790.22;;;35.10;40.96
80837;BME280;70251;60.008;30.404;2023-08-06T11:52:13;100794.44;;;35.07;41.39
80837;BME280;70251;60.008;30.404;2023-08-06T11:54:39;100789.25;;;35.01;41.10
80837;BME280;70251;60.008;30.404;2023-08-06T11:57:05;100794.31;;;34.89;41.60
80837;BME280;70251;60.008;30.404;2023-08-06T11:59:31;100796.09;;;34.80;42.08
80837;BME280;70251;60.008;30.404;2023-08-06T12:01:57;100786.50;;;34.67;42.17
80837;BME280;70251;60.008;30.404;2023-08-06T12:04:22;100791.97;;;34.44;42.18
80837;BME280;70251;60.008;30.404;2023-08-06T12:06:48;100795.34;;;34.35;42.79
80837;BME280;70251;60.008;30.404;2023-08-06T12:09:13;100786.13;;;34.45;42.47
80837;BME280;70251;60.008;30.404;2023-08-06T12:11:39;100791.22;;;34.67;42.29
80837;BME280;70251;60.008;30.404;2023-08-06T12:14:04;100785.81;;;34.47;42.15
80837;BME280;70251;60.008;30.404;2023-08-06T12:16:30;100787.63;;;34.32;42.54
80837;BME280;70251;60.008;30.404;2023-08-06T12:18:55;100788.91;;;34.45;42.38
80837;BME280;70251;60.008;30.404;2023-08-06T12:21:21;100788.38;;;34.72;42.33
80837;BME280;70251;60.008;30.404;2023-08-06T12:23:46;100776.50;;;34.95;42.34
80837;BME280;70251;60.008;30.404;2023-08-06T12:26:12;100775.91;;;35.03;41.73
80837;BME280;70251;60.008;30.404;2023-08-06T12:28:37;100776.31;;;35.15;41.94
80837;BME280;70251;60.008;30.404;2023-08-06T12:31:03;100776.47;;;35.24;41.74
80837;BME280;70251;60.008;30.404;2023-08-06T12:33:28;100778.38;;;35.28;41.58
80837;BME280;70251;60.008;30.404;2023-08-06T12:35:54;100773.34;;;35.30;41.51
80837;BME280;70251;60.008;30.404;2023-08-06T12:38:20;100766.59;;;35.36;41.50
80837;BME280;70251;60.008;30.404;2023-08-06T12:40:46;100766.53;;;35.41;41.40
80837;BME280;70251;60.008;30.404;2023-08-06T12:43:11;100769.22;;;35.46;41.10
80837;BME280;70251;60.008;30.404;2023-08-06T12:45:37;100760.09;;;35.46;41.22
80837;BME280;70251;60.008;30.404;2023-08-06T12:48:03;100765.91;;;35.49;41.34